createdAt,value
2022-10-19T00:02:22.813Z,99.90
2022-10-19T00:04:49.579Z,99.90
2022-10-19T00:07:16.168Z,99.90
2022-10-19T00:09:45.758Z,99.90
2022-10-19T00:12:13.233Z,99.90
2022-10-19T00:14:39.879Z,99.90
2022-10-19T00:17:06.537Z,99.90
2022-10-19T00:19:33.176Z,99.90
2022-10-19T00:21:59.762Z,99.90
2022-10-19T00:24:26.413Z,99.90
2022-10-19T00:26:53.044Z,99.90
2022-10-19T00:29:19.745Z,99.90
2022-10-19T00:31:48.527Z,99.90
2022-10-19T00:34:15.194Z,99.90
2022-10-19T00:36:41.860Z,99.90
2022-10-19T00:39:12.575Z,99.90
2022-10-19T00:41:39.541Z,99.90
2022-10-19T00:44:07.917Z,99.90
2022-10-19T00:46:37.426Z,99.90
2022-10-19T00:49:22.876Z,99.90
2022-10-19T00:51:53.645Z,99.90
2022-10-19T00:54:20.703Z,99.90
2022-10-19T00:56:50.481Z,99.90
2022-10-19T00:59:20.309Z,99.90
2022-10-19T01:01:48.872Z,99.90
2022-10-19T01:04:15.853Z,99.90
2022-10-19T01:06:42.607Z,99.90
2022-10-19T01:09:09.446Z,99.90
2022-10-19T01:12:01.202Z,99.90
2022-10-19T01:14:49.394Z,99.90
2022-10-19T01:17:32.897Z,99.90
2022-10-19T01:20:21.433Z,99.90
2022-10-19T01:23:06.695Z,99.90
2022-10-19T01:25:49.694Z,99.90
2022-10-19T01:28:38.650Z,99.90
2022-10-19T01:31:19.111Z,99.90
2022-10-19T01:33:54.490Z,99.90
2022-10-19T01:36:36.514Z,99.90
2022-10-19T01:39:33.553Z,99.90
2022-10-19T01:42:15.443Z,99.90
2022-10-19T01:44:52.201Z,99.90
2022-10-19T01:47:42.733Z,99.90
2022-10-19T01:50:33.701Z,99.90
2022-10-19T01:53:01.250Z,99.90
2022-10-19T01:55:28.626Z,99.90
2022-10-19T01:58:01.476Z,99.90
2022-10-19T02:00:31.185Z,99.90
2022-10-19T02:02:59.795Z,99.90
2022-10-19T02:05:31.656Z,99.90
2022-10-19T02:08:02.548Z,99.90
2022-10-19T02:10:31.500Z,99.90
2022-10-19T02:12:59.302Z,99.90
2022-10-19T02:15:29.008Z,99.90
2022-10-19T02:17:59.730Z,99.90
2022-10-19T02:20:28.216Z,99.90
2022-10-19T02:22:54.903Z,99.90
2022-10-19T02:25:22.593Z,99.90
2022-10-19T02:27:49.577Z,99.90
2022-10-19T02:30:19.578Z,99.90
2022-10-19T02:32:46.189Z,99.90
2022-10-19T02:35:14.381Z,99.90
2022-10-19T02:37:41.272Z,99.90
2022-10-19T02:40:09.130Z,99.90
2022-10-19T02:42:43.609Z,99.90
2022-10-19T02:45:17.342Z,99.90
2022-10-19T02:47:50.006Z,99.90
2022-10-19T02:50:19.177Z,99.90
2022-10-19T02:52:45.718Z,99.90
2022-10-19T02:55:12.335Z,99.90
2022-10-19T02:57:38.935Z,99.90
2022-10-19T03:00:07.305Z,99.90
2022-10-19T03:02:34.047Z,99.90
2022-10-19T03:05:00.733Z,99.90
2022-10-19T03:07:27.358Z,99.90
2022-10-19T03:09:54.165Z,99.90
2022-10-19T03:12:20.801Z,99.90
2022-10-19T03:14:55.697Z,99.90
2022-10-19T03:17:22.363Z,99.90
2022-10-19T03:19:48.957Z,99.90
2022-10-19T03:22:15.653Z,99.90
2022-10-19T03:24:42.289Z,99.90
2022-10-19T03:27:09.015Z,99.90
2022-10-19T03:29:35.623Z,99.90
2022-10-19T03:32:02.283Z,99.90
2022-10-19T03:34:29.007Z,99.90
2022-10-19T03:36:56.681Z,99.90
2022-10-19T03:39:23.334Z,99.90
2022-10-19T03:41:49.925Z,99.90
2022-10-19T03:44:16.775Z,99.90
2022-10-19T03:46:43.428Z,99.90
2022-10-19T03:49:10.652Z,99.90
2022-10-19T03:51:37.416Z,99.90
2022-10-19T03:54:07.116Z,99.90
2022-10-19T03:56:35.919Z,99.90
2022-10-19T03:59:04.182Z,99.90
2022-10-19T04:01:39.495Z,99.90
2022-10-19T04:04:14.880Z,99.90
2022-10-19T04:06:43.606Z,99.90
2022-10-19T04:09:13.434Z,99.90
2022-10-19T04:11:40.281Z,99.90
2022-10-19T04:14:07.258Z,99.90
2022-10-19T04:16:34.457Z,99.90
2022-10-19T04:19:01.112Z,99.90
2022-10-19T04:21:30.714Z,99.90
2022-10-19T04:24:17.816Z,99.90
2022-10-19T04:26:52.509Z,99.90
2022-10-19T04:29:22.784Z,99.90
2022-10-19T04:31:53.844Z,99.90
2022-10-19T04:34:20.746Z,99.90
2022-10-19T04:36:47.358Z,99.90
2022-10-19T04:39:14.000Z,99.90
2022-10-19T04:41:40.563Z,99.90
2022-10-19T04:44:07.350Z,99.90
2022-10-19T04:46:34.842Z,99.90
2022-10-19T04:49:04.137Z,99.90
2022-10-19T04:51:31.092Z,99.90
2022-10-19T04:53:59.596Z,99.90
2022-10-19T04:56:27.667Z,99.90
2022-10-19T04:58:57.414Z,99.90
2022-10-19T05:01:25.427Z,99.90
2022-10-19T05:06:29.717Z,99.90
2022-10-19T05:08:56.472Z,99.90
2022-10-19T05:11:23.147Z,99.90
2022-10-19T05:13:49.765Z,99.90
2022-10-19T05:16:21.828Z,99.90
2022-10-19T05:18:55.945Z,99.90
2022-10-19T05:21:22.759Z,99.90
2022-10-19T05:23:52.213Z,99.90
2022-10-19T05:26:21.123Z,99.90
2022-10-19T05:28:48.870Z,99.90
2022-10-19T05:31:20.638Z,99.90
2022-10-19T05:33:47.640Z,99.90
2022-10-19T05:36:15.963Z,99.90
2022-10-19T05:38:43.604Z,99.90
2022-10-19T05:41:10.253Z,99.90
2022-10-19T05:43:37.055Z,99.90
2022-10-19T05:46:05.985Z,99.90
2022-10-19T05:48:35.586Z,99.90
2022-10-19T05:51:05.173Z,99.90
2022-10-19T05:53:33.268Z,99.90
2022-10-19T05:56:00.061Z,99.90
2022-10-19T05:58:27.061Z,99.90
2022-10-19T06:00:59.123Z,99.90
2022-10-19T06:03:26.329Z,99.90
2022-10-19T06:05:53.958Z,99.90
2022-10-19T06:08:21.987Z,99.90
2022-10-19T06:10:49.255Z,99.90
2022-10-19T06:13:17.288Z,99.90
2022-10-19T06:15:43.859Z,99.90
2022-10-19T06:18:12.545Z,99.90
2022-10-19T06:20:42.565Z,99.90
2022-10-19T06:23:09.246Z,99.90
2022-10-19T06:25:36.452Z,99.90
2022-10-19T06:28:04.230Z,99.90
2022-10-19T06:30:30.901Z,99.90
2022-10-19T06:32:59.394Z,99.90
2022-10-19T06:35:26.030Z,99.90
2022-10-19T06:37:52.583Z,99.90
2022-10-19T06:40:19.207Z,99.90
2022-10-19T06:42:45.817Z,99.90
2022-10-19T06:45:12.390Z,99.90
2022-10-19T06:47:39.295Z,99.90
2022-10-19T06:50:06.819Z,99.90
2022-10-19T06:52:34.912Z,99.90
2022-10-19T06:55:02.323Z,99.90
2022-10-19T06:57:29.033Z,99.90
2022-10-19T06:59:55.630Z,99.90
2022-10-19T07:02:22.315Z,99.90
2022-10-19T07:04:49.001Z,99.90
2022-10-19T07:07:15.658Z,99.90
2022-10-19T07:09:42.247Z,99.90
2022-10-19T07:12:10.731Z,99.90
2022-10-19T07:14:39.526Z,99.90
2022-10-19T07:17:07.148Z,99.90
2022-10-19T07:19:34.284Z,99.90
2022-10-19T07:22:00.926Z,99.90
2022-10-19T07:24:27.554Z,99.90
2022-10-19T07:26:54.368Z,99.90
2022-10-19T07:29:21.454Z,99.90
2022-10-19T07:31:48.170Z,99.90
2022-10-19T07:34:15.377Z,99.90
2022-10-19T07:36:45.972Z,99.90
2022-10-19T07:39:13.131Z,99.90
2022-10-19T07:41:40.321Z,99.90
2022-10-19T07:44:08.195Z,99.90
2022-10-19T07:46:39.555Z,99.90
2022-10-19T07:49:09.898Z,99.90
2022-10-19T07:51:37.857Z,99.90
2022-10-19T07:54:04.820Z,99.90
2022-10-19T07:56:31.754Z,99.90
2022-10-19T07:58:59.980Z,99.90
2022-10-19T08:01:32.891Z,99.90
2022-10-19T08:06:47.221Z,99.90
2022-10-19T08:09:33.338Z,99.90
2022-10-19T08:12:01.800Z,99.90
2022-10-19T08:14:28.408Z,99.90
2022-10-19T08:16:55.051Z,99.90
2022-10-19T08:19:22.610Z,99.90
2022-10-19T08:21:49.268Z,99.90
2022-10-19T08:24:17.650Z,99.90
2022-10-19T08:26:44.762Z,99.90
2022-10-19T08:29:19.768Z,99.90
2022-10-19T08:31:48.237Z,99.90
2022-10-19T08:34:15.796Z,99.90
2022-10-19T08:39:14.383Z,99.90
2022-10-19T08:41:40.997Z,99.90
2022-10-19T08:44:13.506Z,99.90
2022-10-19T08:47:02.544Z,99.90
2022-10-19T08:49:31.650Z,99.90
2022-10-19T08:52:01.535Z,99.90
2022-10-19T08:54:56.069Z,99.90
2022-10-19T08:57:39.962Z,99.90
2022-10-19T09:00:17.405Z,99.90
2022-10-19T09:03:13.213Z,99.90
2022-10-19T09:05:50.187Z,99.90
2022-10-19T09:08:18.426Z,99.90
2022-10-19T09:10:50.166Z,99.90
2022-10-19T09:13:20.274Z,99.90
2022-10-19T09:15:52.098Z,99.90
2022-10-19T09:18:30.150Z,99.90
2022-10-19T09:21:45.964Z,99.90
2022-10-19T09:24:27.197Z,99.90
2022-10-19T09:26:56.553Z,99.90
2022-10-19T09:29:29.475Z,99.90
2022-10-19T09:34:36.377Z,99.90
2022-10-19T09:37:03.350Z,99.90
2022-10-19T09:39:30.971Z,99.90
2022-10-19T09:42:10.879Z,99.90
2022-10-19T09:44:38.645Z,99.90
2022-10-19T09:47:37.897Z,99.90
2022-10-19T09:50:23.911Z,99.90
2022-10-19T09:52:53.114Z,99.90
2022-10-19T09:55:22.977Z,99.90
2022-10-19T09:57:58.411Z,99.90
2022-10-19T10:00:32.062Z,99.90
2022-10-19T10:02:58.679Z,99.90
2022-10-19T10:05:37.762Z,97.70
2022-10-19T10:08:12.137Z,95.40
2022-10-19T10:10:43.316Z,97.10
2022-10-19T10:13:20.927Z,99.30
2022-10-19T10:15:54.166Z,96.90
2022-10-19T10:18:23.175Z,96.90
2022-10-19T10:21:01.281Z,99.10
2022-10-19T10:23:36.153Z,99.10
2022-10-19T10:26:04.574Z,95.80
2022-10-19T10:28:32.045Z,97.30
2022-10-19T10:31:07.437Z,97.10
2022-10-19T10:33:45.336Z,97.60
2022-10-19T10:36:13.021Z,98.30
2022-10-19T10:38:46.993Z,98.70
2022-10-19T10:41:20.433Z,98.80
2022-10-19T10:43:56.661Z,98.60
2022-10-19T10:46:29.350Z,98.60
2022-10-19T10:49:02.177Z,99.80
2022-10-19T10:51:49.208Z,99.90
2022-10-19T10:54:24.761Z,98.60
2022-10-19T10:57:19.806Z,99.30
2022-10-19T11:00:15.799Z,99.20
2022-10-19T11:03:12.152Z,99.80
2022-10-19T11:05:48.194Z,99.50
2022-10-19T11:08:26.942Z,99.00
2022-10-19T11:11:06.468Z,99.30
2022-10-19T11:13:45.372Z,99.50
2022-10-19T11:16:23.760Z,99.90
2022-10-19T11:19:20.286Z,99.90
2022-10-19T11:22:23.637Z,99.90
2022-10-19T11:25:08.106Z,99.00
2022-10-19T11:28:07.019Z,99.90
2022-10-19T11:30:48.664Z,98.80
2022-10-19T11:33:40.953Z,96.70
2022-10-19T11:36:34.766Z,99.40
2022-10-19T11:39:19.435Z,97.60
2022-10-19T11:42:10.018Z,97.70
2022-10-19T11:45:11.678Z,97.50
2022-10-19T11:48:02.250Z,98.10
2022-10-19T11:50:32.369Z,98.50
2022-10-19T11:53:12.090Z,99.30
2022-10-19T11:55:53.014Z,98.30
2022-10-19T11:58:53.294Z,99.50
2022-10-19T12:01:41.455Z,97.40
2022-10-19T12:04:21.889Z,97.20
2022-10-19T12:07:19.122Z,97.30
2022-10-19T12:10:03.222Z,97.80
2022-10-19T12:12:47.850Z,98.60
2022-10-19T12:15:46.870Z,99.60
2022-10-19T12:18:17.503Z,99.60
2022-10-19T12:20:49.600Z,99.10
2022-10-19T12:23:34.152Z,97.60
2022-10-19T12:26:05.564Z,96.90
2022-10-19T12:28:35.446Z,97.10
2022-10-19T12:31:04.446Z,98.50
2022-10-19T12:33:38.093Z,97.60
2022-10-19T12:36:23.646Z,97.80
2022-10-19T12:39:07.060Z,97.70
2022-10-19T12:41:52.412Z,97.80
2022-10-19T12:44:53.810Z,97.30
2022-10-19T12:47:25.314Z,97.50
2022-10-19T12:49:55.053Z,97.50
2022-10-19T12:52:36.320Z,97.60
2022-10-19T12:55:12.559Z,96.10
2022-10-19T12:57:40.772Z,97.20
2022-10-19T13:00:34.249Z,96.50
2022-10-19T13:03:05.694Z,95.80
2022-10-19T13:05:33.445Z,95.90
2022-10-19T13:08:07.978Z,97.10
2022-10-19T13:10:37.663Z,97.90
2022-10-19T13:13:04.481Z,98.90
2022-10-19T13:15:34.291Z,97.80
2022-10-19T13:18:11.497Z,98.10
2022-10-19T13:20:38.061Z,97.90
2022-10-19T13:23:04.595Z,98.10
2022-10-19T13:25:38.710Z,98.50
2022-10-19T13:28:11.119Z,98.60
2022-10-19T13:30:46.666Z,98.90
2022-10-19T13:33:25.784Z,98.40
2022-10-19T13:35:58.472Z,99.20
2022-10-19T13:38:34.165Z,98.70
2022-10-19T13:41:21.757Z,98.40
2022-10-19T13:44:24.880Z,98.00
2022-10-19T13:47:04.320Z,97.20
2022-10-19T13:49:49.313Z,96.50
2022-10-19T13:52:43.228Z,96.00
2022-10-19T13:55:48.240Z,95.70
2022-10-19T13:58:53.494Z,96.50
2022-10-19T14:01:35.298Z,97.00
2022-10-19T14:04:16.253Z,97.30
2022-10-19T14:07:05.867Z,97.10
2022-10-19T14:10:04.092Z,96.80
2022-10-19T14:12:33.898Z,97.10
2022-10-19T14:15:00.555Z,97.70
2022-10-19T14:17:34.055Z,98.30
2022-10-19T14:20:01.432Z,98.00
2022-10-19T14:22:51.870Z,98.10
2022-10-19T14:25:56.601Z,98.70
2022-10-19T14:28:24.061Z,99.60
2022-10-19T14:31:06.292Z,99.90
2022-10-19T14:33:36.142Z,99.90
2022-10-19T14:36:02.818Z,99.90
2022-10-19T14:38:43.402Z,99.90
2022-10-19T14:41:28.109Z,99.90
2022-10-19T14:43:56.689Z,99.90
2022-10-19T14:46:33.853Z,99.90
2022-10-19T14:49:03.057Z,99.90
2022-10-19T14:51:38.133Z,99.90
2022-10-19T14:54:26.311Z,99.90
2022-10-19T14:57:01.185Z,99.70
2022-10-19T14:59:27.815Z,99.90
2022-10-19T15:01:58.443Z,99.90
2022-10-19T15:04:29.765Z,99.90
2022-10-19T15:07:18.869Z,99.90
2022-10-19T15:10:20.273Z,99.90
2022-10-19T15:13:00.748Z,99.90
2022-10-19T15:15:31.970Z,99.90
2022-10-19T15:18:06.245Z,99.90
2022-10-19T15:20:49.433Z,99.90
2022-10-19T15:23:47.189Z,99.90
2022-10-19T15:26:26.008Z,99.90
2022-10-19T15:28:54.519Z,99.90
2022-10-19T15:31:25.100Z,99.90
2022-10-19T15:34:00.565Z,99.90
2022-10-19T15:36:29.514Z,99.90
2022-10-19T15:39:11.588Z,99.90
2022-10-19T15:41:50.328Z,99.90
2022-10-19T15:44:41.121Z,99.90
2022-10-19T15:47:21.478Z,99.90
2022-10-19T15:49:56.876Z,99.90
2022-10-19T15:52:26.188Z,99.90
2022-10-19T15:54:54.897Z,99.90
2022-10-19T15:57:30.605Z,99.90
2022-10-19T16:00:00.736Z,99.90
2022-10-19T16:02:28.073Z,99.90
2022-10-19T16:04:55.323Z,99.90
2022-10-19T16:07:26.876Z,99.90
2022-10-19T16:09:54.261Z,99.90
2022-10-19T16:12:21.971Z,99.90
2022-10-19T16:14:48.704Z,99.90
2022-10-19T16:17:16.232Z,99.90
2022-10-19T16:19:44.259Z,99.90
2022-10-19T16:22:12.549Z,99.90
2022-10-19T16:24:39.490Z,99.90
2022-10-19T16:27:07.631Z,99.90
2022-10-19T16:29:34.485Z,99.90
2022-10-19T16:32:01.222Z,99.90
2022-10-19T16:34:28.014Z,99.90
2022-10-19T16:36:54.627Z,99.90
2022-10-19T16:39:21.272Z,99.90
2022-10-19T16:41:47.828Z,99.90
2022-10-19T16:44:14.481Z,99.90
2022-10-19T16:46:41.197Z,99.90
2022-10-19T16:49:08.017Z,99.90
2022-10-19T16:51:36.066Z,99.90
2022-10-19T16:54:04.761Z,99.90
2022-10-19T16:56:31.849Z,99.90
2022-10-19T16:59:06.521Z,99.90
2022-10-19T17:01:34.841Z,99.90
2022-10-19T17:04:01.554Z,99.90
2022-10-19T17:06:28.964Z,99.90
2022-10-19T17:11:44.293Z,99.90
2022-10-19T17:14:12.744Z,99.90
2022-10-19T17:16:40.159Z,99.90
2022-10-19T17:19:08.096Z,99.90
2022-10-19T17:21:39.785Z,99.90
2022-10-19T17:24:08.258Z,99.90
2022-10-19T17:26:37.332Z,99.90
2022-10-19T17:29:04.901Z,99.90
2022-10-19T17:31:32.594Z,99.90
2022-10-19T17:34:00.634Z,99.90
2022-10-19T17:36:29.618Z,99.90
2022-10-19T17:38:59.074Z,99.90
2022-10-19T17:41:26.849Z,99.90
2022-10-19T17:43:54.417Z,99.90
2022-10-19T17:46:26.841Z,99.90
2022-10-19T17:48:53.521Z,99.90
2022-10-19T17:51:23.663Z,99.90
2022-10-19T17:53:51.105Z,99.90
2022-10-19T17:56:19.898Z,99.90
2022-10-19T17:58:48.012Z,99.90
2022-10-19T18:01:16.576Z,99.90
2022-10-19T18:03:43.597Z,99.90
2022-10-19T18:06:16.306Z,99.90
2022-10-19T18:08:45.693Z,99.90
2022-10-19T18:11:19.325Z,99.90
2022-10-19T18:13:46.529Z,99.90
2022-10-19T18:16:19.754Z,99.90
2022-10-19T18:18:49.298Z,99.90
2022-10-19T18:21:18.418Z,99.90
2022-10-19T18:23:45.882Z,99.90
2022-10-19T18:26:15.545Z,99.90
2022-10-19T18:28:43.479Z,99.90
2022-10-19T18:31:15.642Z,99.90
2022-10-19T18:33:42.837Z,99.90
2022-10-19T18:36:10.549Z,99.90
2022-10-19T18:38:38.348Z,99.90
2022-10-19T18:43:39.798Z,99.90
2022-10-19T18:46:07.566Z,99.90
2022-10-19T18:48:36.138Z,99.90
2022-10-19T18:51:06.530Z,99.90
2022-10-19T18:53:33.934Z,99.90
2022-10-19T18:56:06.406Z,99.90
2022-10-19T18:58:33.792Z,99.90
2022-10-19T19:01:06.267Z,99.90
2022-10-19T19:03:33.728Z,99.90
2022-10-19T19:06:01.894Z,99.90
2022-10-19T19:08:29.191Z,99.90
2022-10-19T19:10:57.172Z,99.90
2022-10-19T19:13:24.027Z,99.90
2022-10-19T19:15:58.685Z,99.90
2022-10-19T19:18:26.139Z,99.90
2022-10-19T19:20:53.289Z,99.90
2022-10-19T19:23:20.193Z,99.90
2022-10-19T19:25:46.945Z,99.90
2022-10-19T19:28:13.582Z,99.90
2022-10-19T19:30:45.356Z,99.90
2022-10-19T19:33:12.658Z,99.90
2022-10-19T19:35:43.683Z,99.90
2022-10-19T19:38:11.540Z,99.90
2022-10-19T19:40:42.012Z,99.90
2022-10-19T19:43:09.804Z,99.90
2022-10-19T19:45:37.906Z,99.90
2022-10-19T19:48:05.908Z,99.90
2022-10-19T19:50:33.538Z,99.90
2022-10-19T19:53:00.557Z,99.90
2022-10-19T19:55:27.825Z,99.90
2022-10-19T19:57:55.264Z,99.90
2022-10-19T20:00:23.720Z,99.90
2022-10-19T20:02:54.893Z,99.90
2022-10-19T20:05:22.373Z,99.90
2022-10-19T20:07:49.204Z,99.90
2022-10-19T20:10:16.180Z,99.90
2022-10-19T20:12:46.588Z,99.90
2022-10-19T20:15:15.913Z,99.90
2022-10-19T20:17:43.404Z,99.90
2022-10-19T20:20:12.249Z,99.90
2022-10-19T20:22:39.067Z,99.90
2022-10-19T20:25:06.222Z,99.90
2022-10-19T20:27:36.260Z,99.90
2022-10-19T20:30:03.767Z,99.90
2022-10-19T20:32:30.493Z,99.90
2022-10-19T20:34:57.091Z,99.90
2022-10-19T20:37:24.273Z,99.90
2022-10-19T20:39:51.089Z,99.90
2022-10-19T20:42:18.631Z,99.90
2022-10-19T20:44:45.449Z,99.90
2022-10-19T20:47:12.037Z,99.90
2022-10-19T20:49:38.732Z,99.90
2022-10-19T20:52:05.288Z,99.90
2022-10-19T20:54:31.881Z,99.90
2022-10-19T20:56:58.891Z,99.90
2022-10-19T20:59:27.609Z,99.90
2022-10-19T21:01:57.108Z,99.90
2022-10-19T21:04:25.557Z,99.90
2022-10-19T21:06:53.015Z,99.90
2022-10-19T21:09:22.009Z,99.90
2022-10-19T21:11:50.502Z,99.90
2022-10-19T21:14:26.920Z,99.90
2022-10-19T21:16:57.657Z,99.90
2022-10-19T21:19:26.228Z,99.90
2022-10-19T21:21:55.500Z,99.90
2022-10-19T21:24:24.643Z,99.90
2022-10-19T21:29:22.945Z,99.90
2022-10-19T21:31:52.480Z,99.90
2022-10-19T21:34:21.989Z,99.90
2022-10-19T21:36:48.942Z,99.90
2022-10-19T21:39:15.870Z,99.90
2022-10-19T21:41:42.616Z,99.90
2022-10-19T21:44:09.583Z,99.90
2022-10-19T21:46:36.289Z,99.90
2022-10-19T21:49:03.024Z,99.90
2022-10-19T21:51:44.755Z,99.90
2022-10-19T21:54:16.730Z,99.90
2022-10-19T21:56:44.015Z,99.90
2022-10-19T21:59:12.060Z,99.90
2022-10-19T22:01:41.172Z,99.90
2022-10-19T22:04:13.724Z,99.90
2022-10-19T22:06:41.225Z,99.90
2022-10-19T22:09:10.367Z,99.90
2022-10-19T22:11:36.993Z,99.90
2022-10-19T22:14:04.515Z,99.90
2022-10-19T22:16:33.450Z,99.90
2022-10-19T22:19:00.055Z,99.90
2022-10-19T22:21:29.571Z,99.90
2022-10-19T22:24:00.335Z,99.90
2022-10-19T22:26:30.006Z,99.90
2022-10-19T22:28:58.445Z,99.90
2022-10-19T22:31:26.936Z,99.90
2022-10-19T22:33:53.601Z,99.90
2022-10-19T22:36:20.227Z,99.90
2022-10-19T22:38:46.880Z,99.90
2022-10-19T22:41:13.421Z,99.90
2022-10-19T22:43:39.993Z,99.90
2022-10-19T22:46:06.655Z,99.90
2022-10-19T22:48:33.233Z,99.90
2022-10-19T22:50:59.809Z,99.90
2022-10-19T22:53:26.434Z,99.90
2022-10-19T22:55:52.977Z,99.90
2022-10-19T22:58:19.957Z,99.90
2022-10-19T23:00:56.774Z,99.90
2022-10-19T23:03:23.346Z,99.90
2022-10-19T23:05:49.974Z,99.90
2022-10-19T23:08:16.507Z,99.90
2022-10-19T23:10:43.094Z,99.90
2022-10-19T23:13:11.014Z,99.90
2022-10-19T23:15:41.656Z,99.90
2022-10-19T23:18:10.755Z,99.90
2022-10-19T23:20:37.367Z,99.90
2022-10-19T23:23:04.260Z,99.90
2022-10-19T23:28:02.325Z,99.90
2022-10-19T23:30:28.889Z,99.90
2022-10-19T23:32:55.441Z,99.90
2022-10-19T23:35:22.077Z,99.90
2022-10-19T23:37:48.687Z,99.90
2022-10-19T23:40:15.282Z,99.90
2022-10-19T23:42:41.902Z,99.90
2022-10-19T23:45:08.821Z,99.90
2022-10-19T23:47:35.583Z,99.90
2022-10-19T23:50:02.323Z,99.90
2022-10-19T23:52:28.912Z,99.90
2022-10-19T23:54:55.509Z,99.90
2022-10-19T23:57:22.086Z,99.90
2022-10-19T23:59:48.658Z,99.90
